Time;durP1;ratioP1;P1;durP2;ratioP2;P2;SDS_P1;SDS_P2;PMS_P1;PMS_P2;Temp;Humidity;BMP_temperature;BMP_pressure;BME280_temperature;BME280_humidity;BME280_pressure;Samples;Min_cycle;Max_cycle;Signal;HPM_P1;HPM_P2
2022/12/30 00:01:18;;;;;;;21.52;13.98;;;;;;;2.80;81.24;99907.84;1718057;82;21538;-74
2022/12/30 00:03:45;;;;;;;22.15;14.40;;;;;;;2.77;81.28;99906.91;1725684;82;20990;-80
2022/12/30 00:06:14;;;;;;;21.17;15.20;;;;;;;2.74;81.37;99913.91;1725251;82;21535;-84
2022/12/30 00:08:46;;;;;;;18.95;14.47;;;;;;;2.71;81.45;99916.47;1738409;82;21263;-76
2022/12/30 00:11:27;;;;;;;23.55;14.45;;;;;;;2.71;81.53;99917.80;1709998;83;21020;-77
2022/12/30 00:33:58;;;;;;;19.00;13.58;;;;;;;2.56;82.66;99924.52;1725288;82;21101;-74
2022/12/30 00:36:26;;;;;;;17.45;12.75;;;;;;;2.56;82.66;99926.36;1756482;81;21011;-75
2022/12/30 00:38:53;;;;;;;16.67;12.47;;;;;;;2.55;82.68;99916.73;1766152;81;21057;-76
2022/12/30 00:44:06;;;;;;;18.55;14.70;;;;;;;2.49;82.94;99920.19;1757071;81;21044;-75
2022/12/30 00:46:34;;;;;;;21.73;13.78;;;;;;;2.46;83.15;99915.23;1748992;81;21336;-77
2022/12/30 00:57:16;;;;;;;24.95;14.55;;;;;;;2.39;83.88;99907.25;1726200;81;21527;-75
2022/12/30 00:59:42;;;;;;;22.58;15.98;;;;;;;2.40;84.03;99916.03;1731060;82;21026;-77
2022/12/30 01:02:09;;;;;;;24.57;16.55;;;;;;;2.40;84.16;99904.88;1726112;82;21271;-74
2022/12/30 01:04:35;;;;;;;20.30;13.30;;;;;;;2.43;84.23;99905.84;1726916;82;20970;-74
2022/12/30 01:07:02;;;;;;;20.50;14.63;;;;;;;2.43;84.28;99904.52;1717471;82;21058;-74
2022/12/30 01:09:28;;;;;;;20.12;13.10;;;;;;;2.45;84.37;99902.47;1719291;82;21018;-76
2022/12/30 01:12:10;;;;;;;21.57;15.05;;;;;;;2.48;84.42;99898.12;1720811;82;21093;-75
2022/12/30 01:14:43;;;;;;;20.70;14.00;;;;;;;2.49;84.44;99895.80;1706764;82;21840;-78
2022/12/30 01:17:13;;;;;;;17.82;14.10;;;;;;;2.48;84.42;99894.14;1720284;82;21002;-77
2022/12/30 01:19:40;;;;;;;21.23;14.25;;;;;;;2.47;84.54;99900.97;1730145;82;21086;-77
2022/12/30 01:22:08;;;;;;;21.73;14.03;;;;;;;2.48;84.60;99906.09;1724037;82;20950;-77
2022/12/30 01:24:35;;;;;;;21.35;14.63;;;;;;;2.48;84.67;99907.42;1682229;83;21093;-77
2022/12/30 01:27:02;;;;;;;25.40;15.13;;;;;;;2.48;84.68;99899.95;1683947;84;21123;-76
2022/12/30 01:29:36;;;;;;;20.95;14.50;;;;;;;2.49;84.74;99899.77;1727537;82;21331;-76
2022/12/30 01:32:04;;;;;;;22.82;16.62;;;;;;;2.51;84.79;99900.38;1716548;82;21586;-75
2022/12/30 01:34:31;;;;;;;21.25;13.75;;;;;;;2.53;84.85;99894.89;1693198;84;21054;-74
2022/12/30 01:36:59;;;;;;;19.87;15.23;;;;;;;2.56;84.87;99888.68;1711433;82;21065;-77
2022/12/30 01:39:26;;;;;;;19.90;14.93;;;;;;;2.57;84.74;99894.31;1732685;82;21970;-77
2022/12/30 01:41:54;;;;;;;22.45;16.48;;;;;;;2.56;84.83;99890.52;1732201;82;21021;-76
2022/12/30 01:45:01;;;;;;;19.73;15.63;;;;;;;2.52;84.83;99886.11;1732675;82;21002;-77
2022/12/30 01:48:02;;;;;;;23.18;14.98;;;;;;;2.53;84.95;99889.58;1724157;82;21038;-75
2022/12/30 01:50:49;;;;;;;23.00;14.28;;;;;;;2.59;85.13;99887.49;1734838;82;21125;-76
2022/12/30 01:53:20;;;;;;;22.42;15.98;;;;;;;2.61;85.06;99893.41;1705656;84;21147;-77
2022/12/30 01:56:06;;;;;;;21.82;16.12;;;;;;;2.65;84.99;99884.04;1726765;82;20963;-78
2022/12/30 01:58:44;;;;;;;20.00;14.00;;;;;;;2.67;84.90;99882.53;1711136;83;21039;-77
2022/12/30 02:01:10;;;;;;;20.45;14.53;;;;;;;2.66;84.79;99893.66;1721099;81;21706;-77
2022/12/30 02:03:44;;;;;;;18.73;13.43;;;;;;;2.65;84.84;99886.69;1740800;82;20992;-77
2022/12/30 02:06:09;;;;;;;20.15;14.20;;;;;;;2.63;84.89;99887.41;1709917;82;21134;-75
2022/12/30 02:08:36;;;;;;;21.23;15.10;;;;;;;2.64;84.99;99875.75;1703087;84;20995;-75
2022/12/30 02:11:04;;;;;;;19.15;13.93;;;;;;;2.69;84.99;99890.60;1697541;84;20909;-75
2022/12/30 02:13:33;;;;;;;23.57;14.65;;;;;;;2.70;84.93;99880.30;1731162;82;20956;-75
2022/12/30 02:16:18;;;;;;;22.55;14.23;;;;;;;2.70;84.83;99878.15;1708215;82;21118;-75
2022/12/30 02:19:01;;;;;;;19.67;13.58;;;;;;;2.69;84.79;99876.50;1749088;82;21089;-76
2022/12/30 02:21:45;;;;;;;20.45;16.05;;;;;;;2.67;84.83;99871.91;1730292;82;21019;-76
2022/12/30 02:24:28;;;;;;;21.55;14.43;;;;;;;2.67;84.86;99871.91;1734966;82;20956;-76
2022/12/30 02:27:37;;;;;;;24.50;15.85;;;;;;;2.67;84.87;99874.06;1717054;82;20983;-75
2022/12/30 02:30:18;;;;;;;22.05;15.23;;;;;;;2.68;84.92;99870.90;1720949;81;21076;-75
2022/12/30 02:33:24;;;;;;;17.87;13.90;;;;;;;2.72;84.92;99873.47;1734332;82;21489;-76
2022/12/30 02:36:02;;;;;;;19.35;15.58;;;;;;;2.77;84.81;99869.73;1701670;83;21040;-76
2022/12/30 02:38:40;;;;;;;18.52;12.75;;;;;;;2.77;84.67;99874.53;1725582;83;21024;-76
2022/12/30 02:47:00;;;;;;;18.23;15.03;;;;;;;2.75;84.53;99867.26;1732219;82;21838;-75
2022/12/30 02:49:27;;;;;;;24.87;13.45;;;;;;;2.76;84.54;99858.79;1700257;84;21062;-76
2022/12/30 02:54:38;;;;;;;19.73;13.75;;;;;;;2.72;84.53;99864.18;1707279;82;20951;-75
2022/12/30 02:57:25;;;;;;;19.75;15.75;;;;;;;2.70;84.58;99857.73;1703138;83;21082;-75
2022/12/30 03:06:31;;;;;;;18.32;13.62;;;;;;;2.76;84.51;99868.91;1681792;85;21094;-72
2022/12/30 03:09:06;;;;;;;18.35;12.95;;;;;;;2.76;84.49;99862.27;1749338;81;21093;-73
2022/12/30 03:11:39;;;;;;;20.43;15.32;;;;;;;2.75;84.43;99857.97;1748176;81;21062;-75
2022/12/30 03:14:20;;;;;;;18.82;12.63;;;;;;;2.75;84.48;99864.60;1735997;82;21111;-75
2022/12/30 03:16:51;;;;;;;18.32;13.28;;;;;;;2.76;84.50;99868.08;1747738;81;20963;-75
2022/12/30 03:19:20;;;;;;;20.23;13.98;;;;;;;2.74;84.47;99872.75;1770586;81;21046;-76
2022/12/30 03:21:49;;;;;;;22.55;14.25;;;;;;;2.73;84.54;99878.60;1743607;81;22177;-75
2022/12/30 03:27:06;;;;;;;22.17;14.43;;;;;;;2.73;84.68;99877.78;1753792;81;21168;-75
2022/12/30 03:29:52;;;;;;;22.62;15.88;;;;;;;2.73;84.73;99871.14;1739579;82;21505;-74
2022/12/30 03:32:20;;;;;;;18.10;13.45;;;;;;;2.77;84.71;99879.02;1740068;81;21532;-74
2022/12/30 03:34:47;;;;;;;16.90;12.03;;;;;;;2.81;84.67;99878.44;1732677;81;20928;-74
2022/12/30 03:37:26;;;;;;;20.48;14.23;;;;;;;2.84;84.62;99882.52;1758338;81;21090;-73
2022/12/30 03:40:19;;;;;;;22.75;15.75;;;;;;;2.87;84.44;99884.30;1716070;82;21133;-74
2022/12/30 03:42:46;;;;;;;19.90;13.85;;;;;;;2.86;84.36;99874.69;1683121;85;21018;-74
2022/12/30 03:45:14;;;;;;;17.80;13.60;;;;;;;2.87;84.21;99878.17;1731881;82;21109;-74
2022/12/30 03:47:41;;;;;;;21.23;16.15;;;;;;;2.85;84.10;99885.00;1743035;81;20987;-75
2022/12/30 03:50:08;;;;;;;23.40;16.65;;;;;;;2.84;84.12;99886.00;1762540;81;21003;-74
2022/12/30 03:52:35;;;;;;;21.25;15.53;;;;;;;2.84;84.13;99882.52;1712608;81;21003;-73
2022/12/30 03:55:02;;;;;;;19.17;16.07;;;;;;;2.84;84.15;99886.00;1763081;81;20991;-74
2022/12/30 03:57:29;;;;;;;18.45;13.88;;;;;;;2.87;84.09;99887.47;1770377;81;20939;-73
2022/12/30 03:59:55;;;;;;;23.98;15.70;;;;;;;2.88;84.08;99894.39;1739625;81;21579;-72
2022/12/30 04:02:21;;;;;;;16.45;13.30;;;;;;;2.90;84.15;99895.86;1720882;82;21016;-73
2022/12/30 04:04:48;;;;;;;19.50;15.10;;;;;;;2.96;84.08;99898.24;1705400;83;21141;-73
2022/12/30 04:07:15;;;;;;;17.00;14.73;;;;;;;3.02;83.88;99896.14;1733967;82;21606;-73
2022/12/30 04:09:42;;;;;;;23.35;14.85;;;;;;;3.04;83.71;99891.44;1757894;81;21115;-72
2022/12/30 04:12:08;;;;;;;17.87;14.90;;;;;;;3.05;83.56;99899.72;1742421;81;20990;-72
2022/12/30 04:14:34;;;;;;;22.40;15.95;;;;;;;3.06;83.47;99886.76;1734172;81;22376;-76
2022/12/30 04:17:01;;;;;;;20.85;15.08;;;;;;;3.06;83.33;99897.39;1709397;83;21015;-76
2022/12/30 04:19:28;;;;;;;22.10;15.70;;;;;;;3.03;83.33;99897.76;1727797;83;21044;-75
2022/12/30 04:21:54;;;;;;;21.35;15.23;;;;;;;3.03;83.31;99902.57;1741600;81;21043;-72
2022/12/30 04:24:20;;;;;;;19.70;15.13;;;;;;;3.02;83.32;99890.83;1754919;81;21098;-73
2022/12/30 04:26:47;;;;;;;21.05;15.75;;;;;;;3.02;83.33;99894.81;1749103;81;21051;-74
2022/12/30 04:29:13;;;;;;;24.95;15.20;;;;;;;3.05;83.39;99890.42;1748319;81;21395;-72
2022/12/30 04:31:40;;;;;;;22.03;15.43;;;;;;;3.05;83.32;99895.23;1742427;81;21140;-75
2022/12/30 04:34:06;;;;;;;18.42;15.03;;;;;;;3.08;83.40;99893.50;1752835;81;20936;-77
2022/12/30 04:36:33;;;;;;;21.80;14.83;;;;;;;3.13;83.24;99889.43;1734444;81;21562;-75
2022/12/30 04:38:59;;;;;;;26.82;17.67;;;;;;;3.12;83.16;99891.27;1729013;81;21048;-75
2022/12/30 04:41:25;;;;;;;18.23;14.58;;;;;;;3.12;83.20;99888.61;1713667;82;21311;-77
2022/12/30 04:43:52;;;;;;;20.85;16.05;;;;;;;3.11;83.16;99881.68;1734896;82;21078;-76
2022/12/30 04:46:18;;;;;;;21.62;15.65;;;;;;;3.06;83.19;99876.95;1753747;81;20991;-75
2022/12/30 04:48:45;;;;;;;18.92;14.18;;;;;;;3.07;83.33;99881.23;1756070;81;20979;-75
2022/12/30 04:51:11;;;;;;;20.77;14.83;;;;;;;3.12;83.42;99889.14;1749169;81;21037;-77
2022/12/30 04:53:38;;;;;;;19.20;13.98;;;;;;;3.16;83.42;99887.73;1744673;81;21159;-74
2022/12/30 04:56:05;;;;;;;25.00;16.23;;;;;;;3.21;83.30;99883.97;1733188;82;21061;-74
2022/12/30 04:58:32;;;;;;;20.12;14.90;;;;;;;3.22;83.16;99882.93;1688383;82;21015;-76
2022/12/30 05:00:59;;;;;;;24.55;16.87;;;;;;;3.23;83.16;99873.44;1759175;81;21044;-75
2022/12/30 05:03:25;;;;;;;18.73;14.60;;;;;;;3.27;83.11;99877.84;1761317;81;21343;-77
2022/12/30 05:05:52;;;;;;;20.95;13.98;;;;;;;3.27;82.87;99872.53;1749066;81;21140;-75
2022/12/30 05:08:18;;;;;;;21.27;15.30;;;;;;;3.24;82.86;99870.28;1745213;81;21000;-75
2022/12/30 05:10:45;;;;;;;21.45;15.40;;;;;;;3.22;82.89;99873.63;1748369;81;20995;-76
2022/12/30 05:13:12;;;;;;;23.20;14.87;;;;;;;3.21;82.97;99872.02;1733942;82;21046;-74
2022/12/30 05:15:38;;;;;;;25.25;15.85;;;;;;;3.20;83.02;99877.83;1734080;82;21030;-75
2022/12/30 05:18:05;;;;;;;23.83;16.15;;;;;;;3.19;83.07;99873.53;1714349;82;21048;-74
2022/12/30 05:20:32;;;;;;;18.02;14.33;;;;;;;3.18;83.15;99876.38;1737041;82;20975;-75
2022/12/30 05:22:59;;;;;;;18.30;13.13;;;;;;;3.21;83.20;99870.18;1737594;82;20978;-75
2022/12/30 05:28:10;;;;;;;20.27;15.13;;;;;;;3.28;83.19;99870.19;1767014;81;21011;-74
2022/12/30 05:30:37;;;;;;;23.35;15.25;;;;;;;3.30;83.13;99871.64;1763641;81;21775;-79
2022/12/30 05:33:03;;;;;;;18.05;14.78;;;;;;;3.29;83.07;99868.67;1770380;81;21046;-74
2022/12/30 05:35:30;;;;;;;20.20;15.98;;;;;;;3.30;83.10;99874.30;1743123;81;21547;-74
2022/12/30 05:37:56;;;;;;;20.40;15.70;;;;;;;3.29;83.08;99873.16;1748086;81;21579;-77
2022/12/30 05:40:23;;;;;;;24.43;14.90;;;;;;;3.30;83.16;99876.14;1739431;81;21508;-76
2022/12/30 05:42:50;;;;;;;24.80;15.68;;;;;;;3.30;83.22;99872.16;1737184;82;21529;-75
2022/12/30 05:45:17;;;;;;;22.73;15.58;;;;;;;3.32;83.29;99879.40;1759397;81;21523;-75
2022/12/30 05:47:43;;;;;;;25.32;16.65;;;;;;;3.33;83.21;99879.21;1762967;81;21014;-76
2022/12/30 05:50:10;;;;;;;23.47;15.15;;;;;;;3.40;83.20;99886.72;1770575;81;21116;-74
2022/12/30 05:52:37;;;;;;;26.37;17.15;;;;;;;3.40;83.20;99886.72;1771038;81;21516;-78
2022/12/30 05:55:04;;;;;;;21.85;16.23;;;;;;;3.42;83.09;99891.81;1743731;81;21279;-74
2022/12/30 05:57:32;;;;;;;20.48;16.17;;;;;;;3.40;82.99;99891.21;1751935;81;21007;-74
2022/12/30 05:59:58;;;;;;;19.62;14.75;;;;;;;3.38;83.00;99890.58;1750973;81;21006;-74
2022/12/30 06:02:25;;;;;;;21.15;15.72;;;;;;;3.35;83.01;99891.81;1759877;81;21083;-75
2022/12/30 06:04:52;;;;;;;20.68;13.72;;;;;;;3.34;83.08;99900.80;1736327;81;20987;-78
2022/12/30 06:07:18;;;;;;;22.50;15.38;;;;;;;3.35;83.18;99906.43;1722856;81;22360;-77
2022/12/30 06:09:45;;;;;;;28.20;17.32;;;;;;;3.32;83.22;99907.31;1739187;81;21042;-76
2022/12/30 06:12:11;;;;;;;23.70;15.98;;;;;;;3.34;83.40;99907.44;1742795;81;20936;-73
2022/12/30 06:14:38;;;;;;;27.10;17.55;;;;;;;3.37;83.41;99905.70;1765616;81;20939;-72
2022/12/30 06:17:05;;;;;;;25.62;18.17;;;;;;;3.40;83.35;99915.14;1763686;81;21034;-75
2022/12/30 06:19:31;;;;;;;24.55;18.40;;;;;;;3.42;83.32;99915.23;1737954;81;21763;-75
2022/12/30 06:21:58;;;;;;;26.90;18.75;;;;;;;3.43;83.20;99922.20;1765889;81;20936;-76
2022/12/30 06:24:25;;;;;;;25.90;17.73;;;;;;;3.42;83.18;99916.56;1742666;81;21041;-78
2022/12/30 06:26:51;;;;;;;25.90;17.27;;;;;;;3.43;83.23;99924.03;1755282;81;21005;-79
2022/12/30 06:29:18;;;;;;;26.80;19.32;;;;;;;3.43;83.24;99927.52;1739836;81;21034;-82
2022/12/30 06:31:44;;;;;;;23.50;16.48;;;;;;;3.38;83.27;99919.82;1735198;82;22240;-79
2022/12/30 06:34:11;;;;;;;26.20;18.15;;;;;;;3.41;83.35;99927.39;1761364;81;20939;-77
2022/12/30 06:36:38;;;;;;;25.00;18.40;;;;;;;3.41;83.35;99927.39;1765142;81;21040;-76
2022/12/30 06:39:06;;;;;;;28.52;18.12;;;;;;;3.46;83.37;99931.61;1764024;80;21088;-79
2022/12/30 06:41:35;;;;;;;27.58;18.98;;;;;;;3.47;83.22;99942.05;1734239;82;21082;-78
2022/12/30 06:44:01;;;;;;;29.25;19.20;;;;;;;3.46;83.17;99942.23;1733680;82;21156;-77
2022/12/30 06:46:28;;;;;;;26.82;19.07;;;;;;;3.47;83.34;99937.23;1735867;81;21570;-77
2022/12/30 06:48:54;;;;;;;26.00;18.40;;;;;;;3.47;83.34;99937.23;1737580;81;20986;-76
2022/12/30 06:51:21;;;;;;;30.45;20.05;;;;;;;3.48;83.21;99945.03;1735421;82;21018;-77
2022/12/30 06:53:47;;;;;;;30.27;19.15;;;;;;;3.50;83.24;99948.83;1735285;81;21026;-77
2022/12/30 06:56:13;;;;;;;27.80;18.82;;;;;;;3.51;83.13;99951.78;1736005;81;21595;-74
2022/12/30 06:58:40;;;;;;;26.20;17.50;;;;;;;3.47;83.04;99955.85;1738257;82;21022;-75
2022/12/30 07:01:06;;;;;;;23.07;17.35;;;;;;;3.47;83.14;99958.00;1679220;84;21029;-72
2022/12/30 07:03:33;;;;;;;23.30;17.57;;;;;;;3.47;83.20;99956.67;1705368;83;20999;-74
2022/12/30 07:05:59;;;;;;;21.68;17.15;;;;;;;3.53;83.25;99955.58;1720165;83;21654;-74
2022/12/30 07:08:26;;;;;;;22.93;16.80;;;;;;;3.57;83.03;99953.66;1719120;83;21787;-75
2022/12/30 07:10:54;;;;;;;27.52;18.98;;;;;;;3.56;82.99;99951.18;1724060;83;21028;-75
2022/12/30 07:13:21;;;;;;;25.20;16.93;;;;;;;3.57;83.01;99961.63;1724063;83;21046;-76
2022/12/30 07:15:47;;;;;;;23.45;16.93;;;;;;;3.57;82.97;99959.48;1720803;83;21052;-73
2022/12/30 07:18:14;;;;;;;24.05;18.00;;;;;;;3.57;82.95;99957.64;1678122;84;21165;-75
2022/12/30 07:20:40;;;;;;;29.23;17.77;;;;;;;3.55;82.93;99954.88;1699300;83;21158;-74
2022/12/30 07:23:07;;;;;;;32.33;20.15;;;;;;;3.51;83.01;99955.26;1686521;83;21034;-75
2022/12/30 07:25:34;;;;;;;23.30;16.52;;;;;;;3.53;83.25;99960.89;1675499;84;22337;-79
2022/12/30 07:28:01;;;;;;;29.65;17.98;;;;;;;3.53;83.19;99961.72;1736607;81;21513;-75
2022/12/30 07:30:29;;;;;;;27.42;19.40;;;;;;;3.49;83.23;99956.48;1720177;82;21561;-74
2022/12/30 07:32:57;;;;;;;28.00;20.43;;;;;;;3.58;83.38;99968.59;1691386;82;21536;-79
2022/12/30 07:35:24;;;;;;;29.67;18.32;;;;;;;3.62;83.17;99962.36;1710107;82;21098;-81
2022/12/30 07:37:51;;;;;;;27.25;17.65;;;;;;;3.67;83.14;99962.59;1727926;81;21012;-74
2022/12/30 07:40:17;;;;;;;25.17;19.15;;;;;;;3.68;82.87;99959.74;1725136;81;21106;-74
2022/12/30 07:42:44;;;;;;;28.00;20.05;;;;;;;3.66;82.96;99964.43;1724231;81;21067;-74
2022/12/30 07:45:10;;;;;;;27.93;19.37;;;;;;;3.70;82.93;99959.52;1742164;81;21540;-72
2022/12/30 07:47:37;;;;;;;30.12;20.40;;;;;;;3.70;82.93;99959.52;1744371;81;21042;-75
2022/12/30 07:50:05;;;;;;;27.27;20.72;;;;;;;3.69;82.99;99953.92;1728422;81;21566;-74
2022/12/30 07:52:34;;;;;;;29.45;20.20;;;;;;;3.72;83.10;99953.52;1720261;82;21066;-74
2022/12/30 07:55:00;;;;;;;29.82;19.85;;;;;;;3.81;82.98;99950.98;1731205;81;21520;-75
2022/12/30 07:57:28;;;;;;;25.60;18.82;;;;;;;3.81;82.98;99950.98;1676384;84;21148;-75
2022/12/30 07:59:56;;;;;;;29.72;18.48;;;;;;;3.87;82.69;99951.02;1727817;81;20978;-73
2022/12/30 08:02:25;;;;;;;25.52;18.85;;;;;;;3.88;82.42;99955.32;1732623;81;21042;-72
2022/12/30 08:04:51;;;;;;;26.93;19.07;;;;;;;3.89;82.31;99949.47;1734644;81;20998;-71
2022/12/30 08:07:19;;;;;;;24.30;19.40;;;;;;;3.87;82.30;99952.34;1735270;81;21114;-71
2022/12/30 08:09:46;;;;;;;27.65;20.27;;;;;;;3.85;82.35;99953.04;1734599;81;21167;-73
2022/12/30 08:12:12;;;;;;;29.10;19.67;;;;;;;3.85;82.35;99953.04;1732968;82;21151;-72
2022/12/30 08:14:39;;;;;;;21.48;17.60;;;;;;;3.89;82.42;99960.11;1725581;83;20959;-72
2022/12/30 08:17:05;;;;;;;24.98;18.48;;;;;;;3.91;82.30;99961.56;1731196;81;21011;-71
2022/12/30 08:19:32;;;;;;;27.20;19.10;;;;;;;3.94;82.34;99962.48;1711461;82;21038;-72
2022/12/30 08:21:58;;;;;;;27.32;18.67;;;;;;;3.98;82.29;99955.45;1733144;81;21145;-72
2022/12/30 08:24:25;;;;;;;29.95;21.15;;;;;;;4.02;82.21;99958.84;1737289;81;20996;-75
2022/12/30 08:26:51;;;;;;;26.82;21.55;;;;;;;4.00;81.92;99950.22;1737495;81;21579;-73
2022/12/30 08:29:18;;;;;;;31.12;21.27;;;;;;;4.02;81.96;99950.86;1734900;82;20943;-75
2022/12/30 08:31:49;;;;;;;38.25;23.05;;;;;;;4.01;81.80;99945.22;1710301;82;21011;-75
2022/12/30 08:34:14;;;;;;;31.42;22.70;;;;;;;4.01;81.94;99961.19;1732848;82;21815;-77
2022/12/30 08:36:41;;;;;;;34.43;22.70;;;;;;;4.09;82.07;99964.16;1686525;82;21588;-75
2022/12/30 08:39:07;;;;;;;35.13;25.25;;;;;;;4.20;82.04;99968.39;1732228;82;20983;-78
2022/12/30 08:41:36;;;;;;;33.30;21.68;;;;;;;4.31;81.83;99969.65;1733146;82;21018;-78
2022/12/30 08:44:02;;;;;;;31.33;22.37;;;;;;;4.43;81.68;99968.02;1733173;82;21580;-77
2022/12/30 08:46:31;;;;;;;39.08;26.90;;;;;;;4.54;81.41;99972.75;1733066;81;21088;-77
2022/12/30 08:48:57;;;;;;;43.60;25.02;;;;;;;4.59;80.92;99971.63;1712455;82;21536;-76
2022/12/30 08:51:23;;;;;;;34.03;21.48;;;;;;;4.65;80.73;99977.44;1728921;82;21389;-78
2022/12/30 08:53:50;;;;;;;33.25;24.60;;;;;;;4.71;80.48;99980.63;1732585;82;21344;-78
2022/12/30 08:56:22;;;;;;;38.48;25.25;;;;;;;4.76;80.36;99980.02;1732844;82;21087;-81
2022/12/30 08:58:49;;;;;;;32.08;23.15;;;;;;;4.81;80.19;99977.55;1733132;82;21153;-77
2022/12/30 09:01:18;;;;;;;32.00;21.75;;;;;;;4.84;79.83;99981.16;1707142;82;21034;-75
2022/12/30 09:03:45;;;;;;;34.33;24.63;;;;;;;4.86;79.70;99980.42;1699631;84;21069;-79
2022/12/30 09:06:12;;;;;;;32.73;23.75;;;;;;;4.90;79.55;99984.31;1688156;82;21059;-78
2022/12/30 09:08:39;;;;;;;35.95;22.17;;;;;;;4.97;79.41;99973.16;1730595;82;21009;-75
2022/12/30 09:11:16;;;;;;;32.90;21.95;;;;;;;5.04;79.34;99965.95;1724330;82;21283;-75
2022/12/30 09:13:43;;;;;;;35.30;23.57;;;;;;;5.13;79.10;99965.25;1694879;84;20999;-77
2022/12/30 09:16:12;;;;;;;32.73;23.83;;;;;;;5.20;78.68;99968.70;1702823;82;21582;-76
2022/12/30 09:18:39;;;;;;;32.40;22.10;;;;;;;5.22;78.33;99972.81;1702563;84;20916;-77
2022/12/30 09:21:06;;;;;;;33.80;23.45;;;;;;;5.24;77.96;99963.25;1751536;81;21062;-77
2022/12/30 09:23:34;;;;;;;34.03;23.75;;;;;;;5.26;77.81;99971.88;1731542;81;21023;-74
2022/12/30 09:26:02;;;;;;;33.35;22.45;;;;;;;5.28;77.76;99974.62;1737495;81;21031;-74
2022/12/30 09:28:29;;;;;;;28.70;22.17;;;;;;;5.30;77.63;99972.27;1746012;81;20999;-73
2022/12/30 09:30:55;;;;;;;39.55;25.80;;;;;;;5.31;77.52;99960.59;1754322;81;20994;-75
2022/12/30 09:33:22;;;;;;;33.13;22.25;;;;;;;5.33;77.50;99961.17;1724707;81;21070;-77
2022/12/30 09:35:48;;;;;;;34.03;22.98;;;;;;;5.31;77.44;99958.73;1724155;82;21024;-75
2022/12/30 09:38:14;;;;;;;32.58;22.27;;;;;;;5.32;77.44;99964.39;1724855;81;21538;-76
2022/12/30 09:41:05;;;;;;;38.30;24.90;;;;;;;5.37;77.47;99957.88;1684523;83;20979;-75
2022/12/30 09:44:01;;;;;;;30.23;22.22;;;;;;;5.44;77.41;99960.55;1692870;82;21066;-77
2022/12/30 09:46:39;;;;;;;32.93;20.88;;;;;;;5.51;77.30;99966.69;1691302;84;21073;-76
2022/12/30 09:49:29;;;;;;;30.45;23.60;;;;;;;5.58;77.02;99956.29;1712506;82;35685;-76
2022/12/30 09:52:01;;;;;;;29.48;21.02;;;;;;;5.64;76.85;99957.30;1729678;81;21027;-77
2022/12/30 09:54:30;;;;;;;35.58;23.83;;;;;;;5.67;76.69;99940.86;1746627;81;32509;-78
2022/12/30 09:57:30;;;;;;;37.88;23.85;;;;;;;5.73;76.61;99944.02;1753246;81;22214;-76
2022/12/30 09:59:32;;;;;;;29.27;22.05;;;;;;;5.79;76.49;99943.69;1733141;81;21547;-77
2022/12/30 10:02:17;;;;;;;35.33;23.47;;;;;;;5.83;76.40;99939.05;1756341;81;21437;-78
2022/12/30 10:04:44;;;;;;;34.80;22.73;;;;;;;5.85;76.18;99929.50;1765207;81;21539;-77
2022/12/30 10:07:28;;;;;;;34.05;22.85;;;;;;;5.87;76.09;99936.80;1755619;81;21099;-75
2022/12/30 10:10:00;;;;;;;30.10;21.45;;;;;;;5.89;76.09;99940.91;1751055;81;21027;-74
2022/12/30 10:12:47;;;;;;;33.33;24.30;;;;;;;5.92;75.74;99943.13;1759657;81;21090;-78
2022/12/30 10:15:55;;;;;;;34.35;24.32;;;;;;;5.92;75.93;99937.80;1751063;81;21181;-75
2022/12/30 10:18:42;;;;;;;36.68;24.70;;;;;;;5.96;75.86;99934.17;1761464;81;20967;-78
2022/12/30 10:21:39;;;;;;;39.13;25.30;;;;;;;6.06;75.95;99934.02;1737583;81;21104;-76
2022/12/30 10:24:34;;;;;;;43.35;23.65;;;;;;;6.17;75.74;99934.38;1694031;82;21053;-80
2022/12/30 10:27:09;;;;;;;42.95;26.50;;;;;;;6.23;75.46;99934.34;1759270;81;21012;-77
2022/12/30 10:29:37;;;;;;;38.90;24.15;;;;;;;6.28;75.28;99932.36;1728554;81;21991;-74
2022/12/30 10:32:22;;;;;;;30.60;22.15;;;;;;;6.32;75.21;99925.03;1741567;81;21023;-77
2022/12/30 10:34:53;;;;;;;34.95;23.27;;;;;;;6.37;75.02;99922.53;1742634;81;21010;-76
2022/12/30 10:37:34;;;;;;;30.43;22.77;;;;;;;6.42;74.83;99916.53;1732879;80;21021;-78
2022/12/30 10:40:09;;;;;;;33.90;24.52;;;;;;;6.46;74.73;99923.08;1739329;81;21035;-81
2022/12/30 10:43:05;;;;;;;39.85;25.48;;;;;;;6.51;74.60;99917.90;1740336;81;21213;-72
2022/12/30 10:49:04;;;;;;;31.77;21.93;;;;;;;6.57;74.26;99911.66;1699623;81;21083;-71
2022/12/30 10:51:31;;;;;;;34.40;24.70;;;;;;;6.60;74.16;99909.09;1732602;82;21026;-70
2022/12/30 10:53:58;;;;;;;39.25;24.12;;;;;;;6.59;74.02;99901.59;1746144;81;20978;-72
2022/12/30 10:56:28;;;;;;;40.55;25.80;;;;;;;6.61;73.94;99902.71;1711219;81;21180;-76
2022/12/30 10:59:00;;;;;;;29.80;21.40;;;;;;;6.62;73.93;99899.80;1735743;81;21030;-75
2022/12/30 11:01:33;;;;;;;35.25;24.80;;;;;;;6.67;73.82;99900.48;1732548;81;21020;-79
2022/12/30 11:04:00;;;;;;;36.60;24.35;;;;;;;6.73;73.88;99906.29;1706839;83;21030;-82
2022/12/30 11:06:34;;;;;;;39.48;26.20;;;;;;;6.82;73.83;99899.63;1728071;83;20943;-84
2022/12/30 11:09:18;;;;;;;34.78;25.08;;;;;;;6.93;73.58;99897.57;1728322;83;21247;-86
2022/12/30 11:14:44;;;;;;;37.67;23.15;;;;;;;7.06;73.13;99902.77;1714958;83;21054;-82
2022/12/30 11:17:25;;;;;;;33.90;22.93;;;;;;;7.14;72.85;99897.67;1726572;83;21033;-81
2022/12/30 11:19:56;;;;;;;35.63;26.17;;;;;;;7.18;72.77;99903.69;1727744;82;21050;-83
2022/12/30 11:22:23;;;;;;;35.30;25.57;;;;;;;7.22;72.53;99892.02;1701014;83;21160;-80
2022/12/30 11:25:08;;;;;;;39.27;25.23;;;;;;;7.26;72.20;99894.02;1717125;81;21068;-81
2022/12/30 11:27:41;;;;;;;34.50;24.00;;;;;;;7.29;72.18;99885.54;1684269;84;21003;-76
2022/12/30 11:30:12;;;;;;;;;;;;;;;7.32;72.04;99888.30;1701091;84;21073;-81
2022/12/30 11:32:38;;;;;;;32.17;22.13;;;;;;;7.35;71.85;99898.03;1653650;85;20207;-79
2022/12/30 11:35:12;;;;;;;33.78;25.68;;;;;;;7.35;71.36;99898.03;1657049;84;21084;-87
2022/12/30 11:37:38;;;;;;;36.75;25.02;;;;;;;7.31;71.61;99893.35;1690920;84;20975;-83
2022/12/30 11:40:34;;;;;;;33.13;23.18;;;;;;;7.33;71.75;99895.30;1710652;83;21086;-83
2022/12/30 11:43:15;;;;;;;33.80;24.27;;;;;;;7.35;71.83;99898.03;1697699;83;21105;-85
2022/12/30 11:46:04;;;;;;;42.38;27.85;;;;;;;7.39;71.76;99899.21;1707151;83;21531;-72
2022/12/30 11:48:37;;;;;;;39.35;26.12;;;;;;;7.41;71.55;99896.33;1692589;83;21130;-77
2022/12/30 11:51:15;;;;;;;46.53;29.05;;;;;;;7.40;71.60;99896.02;1690230;83;21560;-84
2022/12/30 11:53:41;;;;;;;33.55;25.35;;;;;;;7.39;71.35;99899.73;1687828;83;20970;-85
2022/12/30 11:56:09;;;;;;;37.10;25.17;;;;;;;7.39;71.51;99899.73;1724227;82;21032;-78
2022/12/30 11:58:38;;;;;;;34.48;23.80;;;;;;;7.40;71.64;99897.36;1696414;84;21119;-82
2022/12/30 12:01:07;;;;;;;29.52;22.58;;;;;;;7.41;71.49;99894.98;1705320;81;21569;-75
2022/12/30 12:03:55;;;;;;;26.87;21.30;;;;;;;7.40;71.63;99896.02;1762510;81;20970;-76
2022/12/30 12:06:21;;;;;;;32.28;22.60;;;;;;;7.42;71.56;99892.09;1737692;81;21075;-76
2022/12/30 12:09:14;;;;;;;33.38;22.22;;;;;;;7.42;71.69;99890.76;1732206;82;21500;-76
2022/12/30 12:11:43;;;;;;;33.83;22.70;;;;;;;7.44;71.70;99883.30;1719672;82;21496;-77
2022/12/30 12:14:43;;;;;;;37.63;22.55;;;;;;;7.44;71.76;99884.64;1753749;81;21052;-76
2022/12/30 12:17:24;;;;;;;36.45;22.65;;;;;;;7.48;71.66;99882.36;1731945;82;21074;-77
2022/12/30 12:19:58;;;;;;;33.75;21.55;;;;;;;7.46;71.53;99888.44;1732394;82;21106;-77
2022/12/30 12:22:37;;;;;;;30.88;20.45;;;;;;;7.45;71.58;99883.61;1732062;82;21030;-77
2022/12/30 12:25:12;;;;;;;28.07;22.37;;;;;;;7.44;71.59;99886.50;1727896;80;21094;-77
2022/12/30 12:27:39;;;;;;;31.52;21.52;;;;;;;7.41;71.75;99890.45;1728874;81;21371;-77
2022/12/30 12:30:12;;;;;;;35.92;25.30;;;;;;;7.42;71.77;99889.94;1743829;81;21014;-78
2022/12/30 12:33:08;;;;;;;38.38;25.68;;;;;;;7.45;71.89;99897.50;1762298;81;21647;-77
2022/12/30 12:35:53;;;;;;;30.65;22.52;;;;;;;7.48;71.89;99902.43;1734195;82;20982;-80
2022/12/30 12:38:42;;;;;;;37.00;24.27;;;;;;;7.49;71.87;99901.36;1734695;81;21054;-82
2022/12/30 12:41:23;;;;;;;27.55;21.17;;;;;;;7.49;71.94;99895.19;1687583;84;21042;-81
2022/12/30 12:44:07;;;;;;;31.73;21.20;;;;;;;7.47;71.78;99899.45;1730249;82;21300;-80